createdAt,value
2022-12-17T00:00:30.163Z,66.93
2022-12-17T00:03:01.247Z,66.40
2022-12-17T00:05:28.842Z,66.47
2022-12-17T00:07:59.923Z,74.17
2022-12-17T00:10:27.355Z,75.17
2022-12-17T00:12:56.442Z,69.50
2022-12-17T00:15:24.432Z,66.53
2022-12-17T00:17:51.871Z,62.20
2022-12-17T00:20:19.412Z,68.77
2022-12-17T00:22:46.848Z,64.90
2022-12-17T00:25:14.320Z,70.07
2022-12-17T00:27:41.771Z,68.07
2022-12-17T00:30:09.385Z,64.57
2022-12-17T00:32:37.240Z,61.33
2022-12-17T00:35:04.792Z,67.47
2022-12-17T00:37:32.316Z,61.20
2022-12-17T00:39:59.741Z,69.13
2022-12-17T00:42:27.196Z,71.80
2022-12-17T00:44:54.627Z,69.23
2022-12-17T00:47:23.669Z,75.33
2022-12-17T00:49:51.138Z,61.67
2022-12-17T00:52:19.440Z,73.17
2022-12-17T00:54:46.893Z,70.43
2022-12-17T00:57:14.318Z,72.40
2022-12-17T00:59:41.780Z,64.17
2022-12-17T01:02:09.350Z,64.47
2022-12-17T01:04:37.289Z,69.07
2022-12-17T01:07:04.809Z,79.73
2022-12-17T01:09:32.274Z,54.77
2022-12-17T01:11:59.708Z,65.93
2022-12-17T01:14:27.681Z,74.30
2022-12-17T01:16:56.279Z,76.50
2022-12-17T01:19:24.051Z,68.37
2022-12-17T01:21:51.511Z,68.20
2022-12-17T01:24:19.452Z,70.00
2022-12-17T01:26:47.136Z,71.77
2022-12-17T01:29:14.569Z,67.17
2022-12-17T01:31:42.045Z,57.40
2022-12-17T01:34:09.606Z,52.57
2022-12-17T01:36:37.033Z,65.37
2022-12-17T01:39:04.707Z,68.53
2022-12-17T01:41:32.915Z,59.60
2022-12-17T01:44:00.688Z,68.60
2022-12-17T01:46:29.672Z,62.73
2022-12-17T01:48:57.115Z,65.17
2022-12-17T01:51:25.258Z,63.90
2022-12-17T01:53:54.535Z,63.30
2022-12-17T01:56:24.337Z,59.17
2022-12-17T01:58:51.807Z,67.93
2022-12-17T02:01:19.779Z,60.50
2022-12-17T02:03:47.341Z,61.50
2022-12-17T02:06:28.610Z,62.87
2022-12-17T02:09:14.938Z,63.33
2022-12-17T02:11:45.432Z,74.57
2022-12-17T02:14:28.115Z,67.80
2022-12-17T02:17:00.122Z,68.00
2022-12-17T02:19:48.225Z,70.47
2022-12-17T02:22:44.898Z,66.27
2022-12-17T02:25:32.627Z,72.77
2022-12-17T02:28:00.283Z,68.70
2022-12-17T02:30:28.052Z,71.53
2022-12-17T02:32:56.284Z,68.60
2022-12-17T02:35:25.733Z,73.70
2022-12-17T02:37:53.179Z,70.33
2022-12-17T02:40:22.438Z,73.53
2022-12-17T02:42:50.182Z,69.90
2022-12-17T02:45:18.220Z,69.30
2022-12-17T02:47:45.879Z,77.03
2022-12-17T02:50:13.391Z,71.23
2022-12-17T02:52:42.994Z,66.93
2022-12-17T02:55:10.874Z,67.90
2022-12-17T02:57:43.470Z,72.00
2022-12-17T03:00:11.692Z,71.37
2022-12-17T03:02:39.275Z,69.07
2022-12-17T03:05:35.567Z,68.53
2022-12-17T03:07:54.305Z,72.87
2022-12-17T03:10:21.763Z,74.87
2022-12-17T03:12:49.614Z,69.57
2022-12-17T03:15:17.488Z,70.20
2022-12-17T03:17:45.033Z,69.87
2022-12-17T03:20:12.452Z,68.13
2022-12-17T03:22:39.920Z,73.40
2022-12-17T03:25:07.527Z,63.33
2022-12-17T03:27:35.040Z,66.23
2022-12-17T03:30:02.571Z,66.27
2022-12-17T03:32:29.981Z,64.57
2022-12-17T03:34:57.425Z,62.67
2022-12-17T03:37:24.864Z,66.13
2022-12-17T03:39:52.308Z,62.13
2022-12-17T03:42:19.752Z,61.37
2022-12-17T03:44:47.192Z,65.70
2022-12-17T03:47:14.644Z,59.83
2022-12-17T03:49:42.108Z,62.37
2022-12-17T03:52:09.555Z,66.13
2022-12-17T03:54:36.952Z,68.57
2022-12-17T03:57:04.475Z,58.07
2022-12-17T03:59:31.890Z,59.00
2022-12-17T04:01:59.638Z,59.83
2022-12-17T04:04:27.076Z,60.37
2022-12-17T04:06:54.546Z,60.67
2022-12-17T04:09:22.031Z,57.77
2022-12-17T04:11:49.500Z,54.20
2022-12-17T04:14:16.920Z,57.47
2022-12-17T04:16:44.336Z,57.60
2022-12-17T04:19:11.807Z,62.83
2022-12-17T04:21:39.248Z,55.40
2022-12-17T04:24:06.810Z,55.73
2022-12-17T04:26:34.341Z,53.70
2022-12-17T04:29:01.812Z,59.83
2022-12-17T04:31:29.360Z,59.30
2022-12-17T04:33:56.861Z,64.03
2022-12-17T04:36:24.276Z,57.40
2022-12-17T04:38:51.684Z,58.20
2022-12-17T04:41:19.283Z,52.77
2022-12-17T04:43:46.666Z,56.20
2022-12-17T04:46:14.146Z,60.37
2022-12-17T04:48:41.592Z,61.90
2022-12-17T04:51:09.137Z,59.40
2022-12-17T04:53:36.842Z,64.03
2022-12-17T04:56:04.524Z,61.97
2022-12-17T04:58:32.153Z,57.60
2022-12-17T05:00:59.681Z,58.43
2022-12-17T05:03:27.142Z,59.70
2022-12-17T05:05:54.656Z,56.83
2022-12-17T05:08:22.084Z,54.03
2022-12-17T05:10:49.481Z,48.53
2022-12-17T05:13:16.921Z,45.70
2022-12-17T05:15:48.348Z,51.03
2022-12-17T05:18:18.917Z,47.67
2022-12-17T05:20:46.387Z,56.77
2022-12-17T05:23:13.898Z,51.57
2022-12-17T05:25:41.318Z,49.13
2022-12-17T05:28:08.847Z,51.77
2022-12-17T05:30:36.274Z,54.27
2022-12-17T05:33:06.531Z,55.07
2022-12-17T05:35:33.996Z,46.90
2022-12-17T05:38:05.224Z,45.23
2022-12-17T05:40:32.678Z,49.33
2022-12-17T05:43:11.892Z,53.60
2022-12-17T05:45:39.423Z,48.03
2022-12-17T05:48:06.893Z,47.07
2022-12-17T05:50:34.303Z,46.80
2022-12-17T05:53:04.895Z,50.90
2022-12-17T05:55:32.384Z,47.37
2022-12-17T05:58:07.556Z,53.00
2022-12-17T06:00:35.019Z,44.57
2022-12-17T06:03:03.313Z,51.33
2022-12-17T06:05:30.931Z,50.87
2022-12-17T06:08:08.045Z,48.03
2022-12-17T06:10:35.517Z,47.67
2022-12-17T06:13:02.916Z,45.53
2022-12-17T06:15:30.305Z,46.73
2022-12-17T06:17:58.279Z,48.30
2022-12-17T06:20:25.704Z,48.30
2022-12-17T06:23:00.344Z,42.03
2022-12-17T06:25:27.808Z,43.90
2022-12-17T06:27:59.291Z,51.80
2022-12-17T06:30:26.872Z,50.90
2022-12-17T06:33:03.280Z,48.67
2022-12-17T06:35:30.702Z,52.13
2022-12-17T06:37:58.950Z,47.33
2022-12-17T06:40:26.384Z,48.97
2022-12-17T06:42:54.672Z,48.80
2022-12-17T06:45:22.065Z,43.43
2022-12-17T06:47:49.620Z,47.90
2022-12-17T06:50:17.064Z,49.83
2022-12-17T06:52:45.261Z,43.93
2022-12-17T06:55:12.725Z,48.27
2022-12-17T06:57:41.819Z,42.57
2022-12-17T07:00:11.865Z,41.47
2022-12-17T07:02:39.511Z,46.77
2022-12-17T07:05:07.195Z,49.97
2022-12-17T07:07:34.691Z,48.43
2022-12-17T07:10:02.190Z,50.57
2022-12-17T07:12:29.628Z,58.20
2022-12-17T07:14:57.029Z,52.43
2022-12-17T07:17:24.443Z,51.50
2022-12-17T07:19:51.870Z,49.27
2022-12-17T07:22:19.306Z,47.57
2022-12-17T07:24:46.821Z,50.13
2022-12-17T07:27:14.254Z,49.47
2022-12-17T07:29:41.765Z,42.80
2022-12-17T07:32:09.280Z,43.70
2022-12-17T07:34:36.726Z,37.87
2022-12-17T07:37:04.162Z,44.43
2022-12-17T07:39:31.563Z,44.60
2022-12-17T07:41:59.028Z,44.00
2022-12-17T07:44:26.464Z,44.63
2022-12-17T07:46:53.933Z,50.00
2022-12-17T07:49:25.632Z,46.03
2022-12-17T07:51:54.049Z,38.40
2022-12-17T07:54:21.493Z,43.30
2022-12-17T07:56:48.930Z,37.50
2022-12-17T07:59:16.401Z,40.47
2022-12-17T08:01:44.018Z,45.27
2022-12-17T08:04:11.494Z,45.23
2022-12-17T08:06:38.938Z,43.97
2022-12-17T08:09:06.479Z,40.43
2022-12-17T08:11:34.144Z,39.23
2022-12-17T08:14:01.591Z,40.77
2022-12-17T08:16:29.465Z,45.67
2022-12-17T08:18:56.962Z,45.37
2022-12-17T08:21:24.410Z,40.60
2022-12-17T08:23:51.866Z,48.63
2022-12-17T08:26:19.381Z,49.50
2022-12-17T08:28:51.035Z,52.50
2022-12-17T08:31:19.333Z,50.40
2022-12-17T08:33:46.853Z,53.10
2022-12-17T08:36:14.341Z,52.67
2022-12-17T08:38:42.196Z,54.20
2022-12-17T08:41:10.841Z,51.10
2022-12-17T08:43:38.662Z,44.50
2022-12-17T08:46:06.558Z,48.67
2022-12-17T08:48:34.162Z,48.40
2022-12-17T08:51:01.710Z,47.10
2022-12-17T08:53:34.602Z,48.90
2022-12-17T08:56:02.538Z,52.50
2022-12-17T08:58:29.998Z,45.13
2022-12-17T09:01:00.721Z,47.67
2022-12-17T09:03:28.345Z,49.43
2022-12-17T09:05:55.792Z,46.90
2022-12-17T09:08:23.243Z,40.97
2022-12-17T09:10:51.172Z,45.77
2022-12-17T09:13:18.619Z,45.93
2022-12-17T09:15:51.375Z,47.97
2022-12-17T09:18:19.682Z,44.10
2022-12-17T09:20:52.174Z,37.80
2022-12-17T09:23:19.661Z,46.40
2022-12-17T09:25:57.950Z,43.07
2022-12-17T09:28:25.718Z,48.33
2022-12-17T09:30:53.347Z,42.27
2022-12-17T09:33:20.920Z,48.03
2022-12-17T09:35:48.415Z,45.83
2022-12-17T09:38:15.865Z,47.00
2022-12-17T09:40:47.301Z,41.37
2022-12-17T09:43:17.700Z,45.93
2022-12-17T09:46:03.867Z,48.53
2022-12-17T09:48:36.408Z,47.07
2022-12-17T09:51:03.915Z,53.67
2022-12-17T09:53:44.814Z,59.83
2022-12-17T09:56:13.141Z,45.63
2022-12-17T09:58:40.931Z,48.00
2022-12-17T10:01:34.781Z,47.73
2022-12-17T10:04:03.171Z,46.60
2022-12-17T10:06:31.327Z,48.67
2022-12-17T10:09:02.902Z,53.00
2022-12-17T10:11:34.606Z,49.47
2022-12-17T10:14:03.966Z,53.83
2022-12-17T10:16:34.654Z,54.57
2022-12-17T10:19:02.369Z,53.87
2022-12-17T10:21:29.846Z,50.13
2022-12-17T10:24:07.695Z,45.17
2022-12-17T10:26:35.488Z,49.90
2022-12-17T10:29:07.440Z,50.63
2022-12-17T10:31:35.303Z,44.83
2022-12-17T10:34:02.952Z,49.60
2022-12-17T10:36:30.501Z,40.83
2022-12-17T10:38:57.989Z,49.20
2022-12-17T10:41:27.081Z,48.27
2022-12-17T10:43:54.690Z,52.63
2022-12-17T10:46:32.332Z,51.47
2022-12-17T10:49:26.041Z,51.60
2022-12-17T10:51:59.289Z,48.07
2022-12-17T10:54:31.030Z,52.33
2022-12-17T10:56:59.816Z,54.63
2022-12-17T10:59:36.279Z,54.83
2022-12-17T11:02:03.860Z,47.00
2022-12-17T11:04:32.892Z,48.73
2022-12-17T11:07:00.354Z,56.33
2022-12-17T11:09:30.564Z,47.13
2022-12-17T11:12:00.656Z,51.70
2022-12-17T11:14:30.405Z,49.13
2022-12-17T11:17:01.086Z,47.17
2022-12-17T11:19:36.844Z,48.17
2022-12-17T11:22:07.861Z,47.53
2022-12-17T11:24:46.885Z,49.90
2022-12-17T11:27:20.576Z,53.80
2022-12-17T11:29:48.519Z,39.63
2022-12-17T11:32:22.068Z,46.77
2022-12-17T11:34:56.699Z,41.37
2022-12-17T11:37:28.749Z,43.83
2022-12-17T11:40:00.925Z,44.13
2022-12-17T11:42:34.609Z,39.73
2022-12-17T11:45:10.926Z,39.90
2022-12-17T11:47:44.060Z,44.57
2022-12-17T11:50:31.774Z,43.20
2022-12-17T11:52:59.263Z,43.53
2022-12-17T11:55:38.504Z,43.20
2022-12-17T11:58:09.161Z,43.23
2022-12-17T12:00:48.877Z,41.40
2022-12-17T12:03:16.476Z,39.87
2022-12-17T12:05:54.994Z,41.40
2022-12-17T12:08:27.253Z,42.67
2022-12-17T12:11:05.768Z,41.90
2022-12-17T12:13:47.363Z,45.47
2022-12-17T12:16:36.194Z,42.00
2022-12-17T12:19:10.550Z,46.23
2022-12-17T12:21:56.920Z,50.90
2022-12-17T12:24:37.265Z,47.00
2022-12-17T12:27:04.775Z,45.23
2022-12-17T12:29:32.388Z,43.87
2022-12-17T12:32:17.036Z,39.07
2022-12-17T12:34:45.690Z,47.50
2022-12-17T12:37:14.659Z,44.83
2022-12-17T12:40:02.411Z,42.23
2022-12-17T12:42:42.780Z,37.60
2022-12-17T12:45:10.334Z,41.23
2022-12-17T12:47:50.275Z,43.57
2022-12-17T12:50:28.326Z,45.57
2022-12-17T12:52:57.346Z,48.23
2022-12-17T12:55:36.179Z,45.17
2022-12-17T12:58:23.615Z,38.57
2022-12-17T13:00:51.111Z,45.57
2022-12-17T13:03:30.453Z,42.30
2022-12-17T13:05:59.602Z,41.07
2022-12-17T13:08:27.098Z,39.93
2022-12-17T13:10:54.891Z,46.63
2022-12-17T13:13:28.682Z,43.93
2022-12-17T13:15:58.286Z,46.50
2022-12-17T13:18:25.866Z,45.03
2022-12-17T13:20:57.687Z,42.83
2022-12-17T13:23:27.936Z,44.73
2022-12-17T13:26:14.346Z,37.30
2022-12-17T13:28:42.236Z,38.87
2022-12-17T13:31:22.151Z,33.53
2022-12-17T13:33:59.018Z,42.07
2022-12-17T13:36:29.571Z,45.07
2022-12-17T13:39:12.446Z,41.93
2022-12-17T13:41:39.962Z,41.37
2022-12-17T13:44:24.622Z,40.30
2022-12-17T13:46:53.393Z,40.60
2022-12-17T13:49:20.849Z,38.57
2022-12-17T13:51:48.528Z,27.80
2022-12-17T13:54:17.511Z,42.57
2022-12-17T13:56:45.486Z,43.53
2022-12-17T13:59:24.129Z,39.20
2022-12-17T14:01:52.953Z,35.20
2022-12-17T14:04:25.494Z,35.17
2022-12-17T14:06:54.561Z,36.13
2022-12-17T14:09:23.339Z,39.67
2022-12-17T14:11:51.175Z,38.60
2022-12-17T14:14:27.704Z,37.57
2022-12-17T14:16:55.515Z,40.03
2022-12-17T14:19:23.440Z,40.73
2022-12-17T14:21:51.211Z,38.03
2022-12-17T14:24:19.755Z,42.93
2022-12-17T14:26:51.323Z,40.77
2022-12-17T14:29:25.966Z,40.93
2022-12-17T14:31:54.883Z,34.70
2022-12-17T14:34:22.438Z,41.17
2022-12-17T14:36:54.598Z,40.07
2022-12-17T14:39:24.674Z,38.47
2022-12-17T14:41:52.588Z,41.50
2022-12-17T14:44:21.943Z,40.77
2022-12-17T14:46:49.562Z,43.53
2022-12-17T14:49:21.231Z,42.03
2022-12-17T14:51:50.303Z,43.67
2022-12-17T14:54:23.870Z,39.57
2022-12-17T14:56:51.309Z,39.87
2022-12-17T14:59:24.492Z,51.50
2022-12-17T15:01:56.121Z,44.40
2022-12-17T15:04:24.308Z,38.67
2022-12-17T15:06:54.588Z,48.17
2022-12-17T15:09:22.080Z,42.63
2022-12-17T15:11:49.537Z,40.17
2022-12-17T15:14:17.048Z,46.83
2022-12-17T15:16:44.603Z,47.37
2022-12-17T15:19:12.143Z,50.27
2022-12-17T15:21:39.704Z,45.20
2022-12-17T15:24:07.727Z,44.23
2022-12-17T15:26:35.202Z,49.17
2022-12-17T15:29:02.747Z,49.07
2022-12-17T15:31:35.243Z,43.90
2022-12-17T15:34:03.185Z,49.03
2022-12-17T15:36:31.012Z,48.13
2022-12-17T15:38:58.749Z,50.47
2022-12-17T15:41:26.153Z,52.50
2022-12-17T15:43:53.634Z,48.83
2022-12-17T15:46:21.228Z,53.87
2022-12-17T15:48:50.778Z,49.47
2022-12-17T15:51:20.014Z,49.57
2022-12-17T15:53:47.865Z,57.80
2022-12-17T15:56:25.930Z,58.77
2022-12-17T15:58:53.464Z,58.93
2022-12-17T16:01:20.990Z,56.87
2022-12-17T16:03:48.703Z,48.97
2022-12-17T16:06:23.613Z,54.83
2022-12-17T16:08:51.079Z,60.50
2022-12-17T16:11:18.577Z,63.57
2022-12-17T16:13:46.111Z,55.00
2022-12-17T16:16:13.645Z,66.97
2022-12-17T16:18:41.671Z,64.00
2022-12-17T16:21:09.705Z,59.77
2022-12-17T16:23:37.277Z,67.10
2022-12-17T16:26:05.983Z,74.67
2022-12-17T16:28:33.525Z,61.90
2022-12-17T16:31:01.695Z,59.30
2022-12-17T16:33:35.771Z,62.90
2022-12-17T16:36:04.282Z,65.10
2022-12-17T16:38:31.845Z,73.97
2022-12-17T16:41:00.232Z,68.83
2022-12-17T16:43:28.916Z,64.13
2022-12-17T16:45:56.569Z,59.70
2022-12-17T16:48:24.372Z,57.67
2022-12-17T16:50:52.127Z,115.97
2022-12-17T16:53:20.011Z,80.73
2022-12-17T16:55:48.256Z,62.03
2022-12-17T16:58:16.628Z,65.43
2022-12-17T17:00:44.371Z,64.03
2022-12-17T17:03:12.022Z,54.73
2022-12-17T17:05:40.212Z,47.03
2022-12-17T17:08:07.939Z,46.20
2022-12-17T17:10:36.114Z,50.50
2022-12-17T17:13:03.550Z,54.73
2022-12-17T17:15:31.280Z,49.03
2022-12-17T17:18:01.784Z,56.17
2022-12-17T17:20:29.801Z,52.63
2022-12-17T17:22:57.321Z,49.80
2022-12-17T17:25:34.475Z,50.03
2022-12-17T17:28:11.601Z,48.90
2022-12-17T17:30:39.090Z,45.67
2022-12-17T17:33:06.574Z,52.83
2022-12-17T17:35:33.996Z,44.90
2022-12-17T17:38:01.495Z,46.50
2022-12-17T17:40:28.959Z,46.63
2022-12-17T17:42:56.382Z,51.80
2022-12-17T17:45:23.823Z,54.97
2022-12-17T17:47:51.291Z,50.43
2022-12-17T17:50:18.736Z,48.37
2022-12-17T17:52:46.223Z,46.20
2022-12-17T17:55:13.699Z,44.67
2022-12-17T17:57:41.140Z,51.87
2022-12-17T18:00:08.883Z,54.13
2022-12-17T18:02:36.526Z,52.67
2022-12-17T18:05:04.157Z,48.03
2022-12-17T18:07:31.614Z,49.20
2022-12-17T18:10:01.806Z,49.47
2022-12-17T18:12:29.269Z,50.87
2022-12-17T18:15:15.292Z,53.80
2022-12-17T18:17:44.395Z,58.23
2022-12-17T18:20:12.386Z,51.67
2022-12-17T18:22:39.887Z,56.30
2022-12-17T18:25:07.539Z,52.30
2022-12-17T18:27:35.043Z,46.77
2022-12-17T18:30:02.556Z,50.90
2022-12-17T18:32:30.136Z,47.27
2022-12-17T18:34:57.650Z,45.83
2022-12-17T18:37:25.286Z,47.57
2022-12-17T18:39:52.778Z,46.40
2022-12-17T18:42:22.648Z,45.60
2022-12-17T18:44:52.253Z,43.73
2022-12-17T18:47:19.877Z,39.47
2022-12-17T18:49:47.346Z,42.27
2022-12-17T18:52:17.045Z,47.23
2022-12-17T18:54:45.437Z,36.10
2022-12-17T18:57:13.239Z,43.73
2022-12-17T18:59:41.264Z,43.67
2022-12-17T19:02:18.206Z,45.27
2022-12-17T19:04:48.881Z,44.10
2022-12-17T19:07:16.380Z,40.87
2022-12-17T19:09:46.245Z,44.53
2022-12-17T19:12:13.783Z,39.57
2022-12-17T19:14:41.294Z,42.47
2022-12-17T19:17:10.316Z,39.77
2022-12-17T19:19:37.771Z,41.47
2022-12-17T19:22:05.278Z,44.33
2022-12-17T19:24:32.732Z,39.07
2022-12-17T19:27:00.252Z,48.47
2022-12-17T19:29:27.699Z,42.37
2022-12-17T19:31:55.359Z,43.87
2022-12-17T19:34:25.354Z,35.47
2022-12-17T19:36:52.931Z,42.63
2022-12-17T19:39:20.824Z,42.23
2022-12-17T19:41:48.705Z,43.50
2022-12-17T19:44:17.457Z,40.70
2022-12-17T19:46:45.105Z,40.83
2022-12-17T19:49:13.343Z,38.27
2022-12-17T19:51:41.415Z,37.37
2022-12-17T19:54:09.639Z,39.43
2022-12-17T19:56:37.500Z,45.03
2022-12-17T19:59:07.141Z,40.87
2022-12-17T20:01:37.868Z,41.83
2022-12-17T20:04:08.275Z,39.33
2022-12-17T20:06:51.787Z,40.20
2022-12-17T20:09:22.534Z,38.17
2022-12-17T20:11:50.816Z,37.10
2022-12-17T20:14:20.539Z,37.93
2022-12-17T20:16:54.279Z,35.90
2022-12-17T20:19:25.735Z,35.37
2022-12-17T20:21:53.930Z,34.50
2022-12-17T20:24:27.221Z,38.40
2022-12-17T20:26:59.841Z,42.97
2022-12-17T20:29:27.564Z,39.80
2022-12-17T20:31:55.772Z,37.70
2022-12-17T20:34:23.646Z,34.07
2022-12-17T20:36:52.007Z,36.37
2022-12-17T20:39:25.950Z,38.90
2022-12-17T20:41:56.794Z,42.43
2022-12-17T20:44:24.344Z,40.40
2022-12-17T20:46:51.813Z,39.20
2022-12-17T20:49:19.289Z,35.87
2022-12-17T20:51:46.987Z,41.07
2022-12-17T20:54:14.512Z,36.87
2022-12-17T20:56:42.071Z,40.17
2022-12-17T20:59:12.650Z,38.03
2022-12-17T21:01:41.261Z,40.20
2022-12-17T21:04:08.888Z,36.07
2022-12-17T21:06:40.467Z,40.63
2022-12-17T21:09:11.237Z,36.50
2022-12-17T21:11:39.171Z,35.00
2022-12-17T21:14:07.743Z,36.37
2022-12-17T21:16:35.497Z,33.93
2022-12-17T21:19:03.509Z,34.40
2022-12-17T21:21:32.876Z,37.00
2022-12-17T21:24:00.422Z,31.93
2022-12-17T21:26:30.079Z,30.10
2022-12-17T21:28:57.616Z,34.27
2022-12-17T21:31:32.817Z,34.53
2022-12-17T21:34:01.948Z,37.90
2022-12-17T21:36:32.764Z,33.03
2022-12-17T21:39:00.809Z,32.10
2022-12-17T21:41:31.619Z,32.23
2022-12-17T21:44:03.329Z,33.73
2022-12-17T21:46:31.117Z,33.73
2022-12-17T21:48:59.374Z,29.80
2022-12-17T21:51:27.131Z,32.80
2022-12-17T21:53:55.920Z,35.77
2022-12-17T21:56:24.005Z,32.37
2022-12-17T21:58:56.500Z,33.20
2022-12-17T22:01:25.407Z,34.40
2022-12-17T22:03:54.535Z,31.63
2022-12-17T22:06:24.396Z,30.53
2022-12-17T22:09:00.856Z,33.27
2022-12-17T22:11:41.976Z,34.73
2022-12-17T22:14:17.016Z,31.67
2022-12-17T22:16:49.682Z,34.60
2022-12-17T22:19:19.062Z,30.50
2022-12-17T22:21:50.808Z,28.57
2022-12-17T22:24:19.449Z,33.00
2022-12-17T22:26:47.243Z,35.97
2022-12-17T22:29:14.750Z,30.27
2022-12-17T22:31:42.302Z,29.67
2022-12-17T22:34:55.200Z,31.50
2022-12-17T22:38:13.770Z,35.37
2022-12-17T22:42:29.312Z,25.47
2022-12-17T22:44:37.804Z,32.43
2022-12-17T22:45:22.780Z,27.03
2022-12-17T22:47:50.982Z,31.07
2022-12-17T22:50:21.882Z,31.83
2022-12-17T22:52:53.526Z,34.30
2022-12-17T22:55:21.431Z,32.63
2022-12-17T22:57:49.432Z,28.67
2022-12-17T23:00:17.592Z,31.83
2022-12-17T23:02:45.077Z,28.90
2022-12-17T23:05:13.046Z,30.00
2022-12-17T23:07:43.683Z,27.03
2022-12-17T23:10:11.199Z,27.27
2022-12-17T23:12:38.646Z,25.83
2022-12-17T23:15:06.493Z,24.57
2022-12-17T23:17:35.397Z,31.50
2022-12-17T23:20:03.019Z,28.70
2022-12-17T23:22:30.571Z,28.13
2022-12-17T23:24:58.023Z,26.87
2022-12-17T23:27:25.511Z,26.00
2022-12-17T23:29:56.017Z,22.37
2022-12-17T23:32:23.694Z,38.13
2022-12-17T23:34:51.215Z,39.70
2022-12-17T23:37:18.692Z,39.43
2022-12-17T23:39:46.181Z,32.57
2022-12-17T23:42:13.734Z,32.93
2022-12-17T23:44:41.258Z,33.47
2022-12-17T23:47:08.745Z,33.67
2022-12-17T23:49:36.176Z,38.50
2022-12-17T23:52:03.688Z,40.77
2022-12-17T23:54:31.140Z,33.97
2022-12-17T23:56:58.682Z,29.40
2022-12-17T23:59:26.299Z,28.80
